createdAt,value
2022-08-20T00:00:19.889Z,86.8
2022-08-20T00:05:19.944Z,86.6
2022-08-20T00:10:16.964Z,86.4
2022-08-20T00:15:19.990Z,86.1
2022-08-20T00:20:16.949Z,85.7
2022-08-20T00:25:18.892Z,85.4
2022-08-20T00:30:16.937Z,85.1
2022-08-20T00:35:19.927Z,84.7
2022-08-20T00:40:22.906Z,84.3
2022-08-20T00:45:20.015Z,84.1
2022-08-20T00:50:17.310Z,83.7
2022-08-20T00:55:21.970Z,83.5
2022-08-20T01:00:19.960Z,83.2
2022-08-20T01:05:19.915Z,83.0
2022-08-20T01:10:19.263Z,82.7
2022-08-20T01:15:19.969Z,82.4
2022-08-20T01:20:20.003Z,82.1
2022-08-20T01:25:19.975Z,81.8
2022-08-20T01:30:21.821Z,81.6
2022-08-20T01:35:19.928Z,81.3
2022-08-20T01:40:19.930Z,81.1
2022-08-20T01:45:20.015Z,80.9
2022-08-20T01:50:16.989Z,80.6
2022-08-20T01:55:16.969Z,80.5
2022-08-20T02:00:20.033Z,80.3
2022-08-20T02:05:18.694Z,80.2
2022-08-20T02:10:19.976Z,80.0
2022-08-20T02:15:19.968Z,79.9
2022-08-20T02:20:19.997Z,79.8
2022-08-20T02:25:19.968Z,79.7
2022-08-20T02:30:27.843Z,79.6
2022-08-20T02:35:17.042Z,79.5
2022-08-20T02:40:18.829Z,79.4
2022-08-20T02:45:20.000Z,79.4
2022-08-20T02:50:20.033Z,79.3
2022-08-20T02:55:25.952Z,79.3
2022-08-20T03:00:17.014Z,79.3
2022-08-20T03:05:20.182Z,79.3
2022-08-20T03:10:21.876Z,79.2
2022-08-20T03:15:19.997Z,79.2
2022-08-20T03:20:16.998Z,79.1
2022-08-20T03:25:16.931Z,79.1
2022-08-20T03:30:20.047Z,78.9
2022-08-20T03:35:20.030Z,78.9
2022-08-20T03:40:17.099Z,78.8
2022-08-20T03:45:21.816Z,78.7
2022-08-20T03:50:22.931Z,78.6
2022-08-20T03:55:20.087Z,78.5
2022-08-20T04:00:16.272Z,78.3
2022-08-20T04:05:19.274Z,78.2
2022-08-20T04:10:19.262Z,78.1
2022-08-20T04:15:16.262Z,78.0
2022-08-20T04:20:21.116Z,77.9
2022-08-20T04:25:19.275Z,77.8
2022-08-20T04:30:19.276Z,77.7
2022-08-20T04:35:19.270Z,77.5
2022-08-20T04:40:19.362Z,77.4
2022-08-20T04:45:19.338Z,77.3
2022-08-20T04:50:16.278Z,77.1
2022-08-20T04:55:21.117Z,77.0
2022-08-20T05:00:16.275Z,76.9
2022-08-20T05:05:19.294Z,76.8
2022-08-20T05:10:19.435Z,76.7
2022-08-20T05:15:19.267Z,76.6
2022-08-20T05:20:19.303Z,76.5
2022-08-20T05:25:19.286Z,76.4
2022-08-20T05:30:21.215Z,76.4
2022-08-20T05:35:19.339Z,76.3
2022-08-20T05:40:16.462Z,76.2
2022-08-20T05:45:19.331Z,76.2
2022-08-20T05:50:20.684Z,76.1
2022-08-20T05:55:19.300Z,76.0
2022-08-20T06:00:19.294Z,75.9
2022-08-20T06:05:20.991Z,75.8
2022-08-20T06:10:19.282Z,75.7
2022-08-20T06:15:19.298Z,75.6
2022-08-20T06:20:19.322Z,75.5
2022-08-20T06:25:19.368Z,75.4
2022-08-20T06:30:19.378Z,75.3
2022-08-20T06:35:20.123Z,75.2
2022-08-20T06:40:21.330Z,75.2
2022-08-20T06:45:19.330Z,75.1
2022-08-20T06:50:19.395Z,75.0
2022-08-20T06:55:16.338Z,74.9
2022-08-20T07:00:16.343Z,74.8
2022-08-20T07:05:16.341Z,74.8
2022-08-20T07:10:19.361Z,74.7
2022-08-20T07:15:21.089Z,74.6
2022-08-20T07:20:19.396Z,74.5
2022-08-20T07:25:19.305Z,74.4
2022-08-20T07:30:20.045Z,74.3
2022-08-20T07:35:19.338Z,74.2
2022-08-20T07:40:22.576Z,74.2
2022-08-20T07:45:19.331Z,74.0
2022-08-20T07:50:21.093Z,73.9
2022-08-20T07:55:19.362Z,73.8
2022-08-20T08:00:19.501Z,73.7
2022-08-20T08:05:16.388Z,73.6
2022-08-20T08:10:16.456Z,73.5
2022-08-20T08:15:19.428Z,73.4
2022-08-20T08:20:16.412Z,73.3
2022-08-20T08:25:18.341Z,73.2
2022-08-20T08:30:16.410Z,73.1
2022-08-20T08:35:16.376Z,73.0
2022-08-20T08:40:19.534Z,72.9
2022-08-20T08:45:19.409Z,72.8
2022-08-20T08:50:24.828Z,72.7
2022-08-20T08:55:21.345Z,72.6
2022-08-20T09:00:19.390Z,72.5
2022-08-20T09:05:19.378Z,72.4
2022-08-20T09:10:23.032Z,72.3
2022-08-20T09:15:19.462Z,72.2
2022-08-20T09:20:19.430Z,72.2
2022-08-20T09:25:19.393Z,72.1
2022-08-20T09:30:21.279Z,72.0
2022-08-20T09:35:19.431Z,71.9
2022-08-20T09:40:20.978Z,71.8
2022-08-20T09:45:19.422Z,71.7
2022-08-20T09:50:19.402Z,71.6
2022-08-20T09:55:16.429Z,71.5
2022-08-20T10:00:19.417Z,71.5
2022-08-20T10:05:21.275Z,71.3
2022-08-20T10:10:19.419Z,71.3
2022-08-20T10:15:19.396Z,71.2
2022-08-20T10:20:16.465Z,71.2
2022-08-20T10:25:19.432Z,71.1
2022-08-20T10:30:19.436Z,71.1
2022-08-20T10:35:19.450Z,71.1
2022-08-20T10:40:21.265Z,71.0
2022-08-20T10:45:19.432Z,71.0
2022-08-20T10:50:19.469Z,71.1
2022-08-20T10:55:19.464Z,71.1
2022-08-20T11:00:19.500Z,71.1
2022-08-20T11:05:19.490Z,71.2
2022-08-20T11:10:19.451Z,71.2
2022-08-20T11:15:21.200Z,71.3
2022-08-20T11:20:19.457Z,71.5
2022-08-20T11:25:19.408Z,71.5
2022-08-20T11:30:19.416Z,71.7
2022-08-20T11:35:41.552Z,71.8
2022-08-20T11:40:19.494Z,72.0
2022-08-20T11:45:19.498Z,72.1
2022-08-20T11:50:21.167Z,72.3
2022-08-20T11:55:19.468Z,72.5
2022-08-20T12:00:19.472Z,72.6
2022-08-20T12:05:16.510Z,72.8
2022-08-20T12:10:19.487Z,73.0
2022-08-20T12:15:19.416Z,73.2
2022-08-20T12:20:19.450Z,73.4
2022-08-20T12:25:21.298Z,73.6
2022-08-20T12:30:19.471Z,73.7
2022-08-20T12:35:19.453Z,73.9
2022-08-20T12:40:25.518Z,74.2
2022-08-20T12:45:19.547Z,74.4
2022-08-20T12:50:19.503Z,74.7
2022-08-20T12:55:19.469Z,74.9
2022-08-20T13:00:21.243Z,75.1
2022-08-20T13:05:19.522Z,75.3
2022-08-20T13:10:19.496Z,75.5
2022-08-20T13:15:19.466Z,75.8
2022-08-20T13:20:16.535Z,76.0
2022-08-20T13:25:19.554Z,76.3
2022-08-20T13:30:19.523Z,76.6
2022-08-20T13:35:21.303Z,77.0
2022-08-20T13:40:16.664Z,77.4
2022-08-20T13:45:19.507Z,77.8
2022-08-20T13:50:19.504Z,78.6
2022-08-20T13:55:19.503Z,79.6
2022-08-20T14:00:19.500Z,80.5
2022-08-20T14:05:19.507Z,80.6
2022-08-20T14:10:21.346Z,80.4
2022-08-20T14:15:16.551Z,80.9
2022-08-20T14:20:19.646Z,81.6
2022-08-20T14:25:19.484Z,82.3
2022-08-20T14:30:19.526Z,83.5
2022-08-20T14:35:19.500Z,83.3
2022-08-20T14:40:19.562Z,82.9
2022-08-20T14:45:21.334Z,83.8
2022-08-20T14:50:19.518Z,84.3
2022-08-20T14:55:19.505Z,84.6
2022-08-20T15:00:19.505Z,86.4
2022-08-20T15:05:19.558Z,86.1
2022-08-20T15:10:19.527Z,88.2
2022-08-20T15:15:19.542Z,87.8
2022-08-20T15:20:21.409Z,86.9
2022-08-20T15:25:19.508Z,87.9
2022-08-20T15:30:19.573Z,88.9
2022-08-20T15:35:16.619Z,91.1
2022-08-20T15:40:19.623Z,90.7
2022-08-20T15:45:21.820Z,90.5
2022-08-20T15:50:19.638Z,89.7
2022-08-20T15:55:21.421Z,90.7
2022-08-20T16:00:16.566Z,92.7
2022-08-20T16:05:19.573Z,92.7
2022-08-20T16:10:19.548Z,92.7
2022-08-20T16:15:19.530Z,91.6
2022-08-20T16:20:19.567Z,91.7
2022-08-20T16:25:16.624Z,91.4
2022-08-20T16:30:21.838Z,92.3
2022-08-20T16:35:19.617Z,92.4
2022-08-20T16:40:16.696Z,93.0
2022-08-20T16:45:19.595Z,92.5
2022-08-20T16:50:16.440Z,92.6
2022-08-20T16:55:19.561Z,91.7
2022-08-20T17:00:16.609Z,93.1
2022-08-20T17:05:21.496Z,93.0
2022-08-20T17:10:19.571Z,93.4
2022-08-20T17:15:19.587Z,93.1
2022-08-20T17:20:20.516Z,92.1
2022-08-20T17:25:16.600Z,91.6
2022-08-20T17:30:19.775Z,91.9
2022-08-20T17:35:19.619Z,91.2
2022-08-20T17:40:21.522Z,89.8
2022-08-20T17:45:19.661Z,89.1
2022-08-20T17:50:16.681Z,88.9
2022-08-20T17:55:19.592Z,87.8
2022-08-20T18:00:19.613Z,87.1
2022-08-20T18:05:19.667Z,86.6
2022-08-20T18:10:16.635Z,86.1
2022-08-20T18:15:24.509Z,85.5
2022-08-20T18:20:19.776Z,85.2
2022-08-20T18:25:19.574Z,85.0
2022-08-20T18:30:16.659Z,85.1
2022-08-20T18:35:16.691Z,85.8
2022-08-20T18:40:16.779Z,86.3
2022-08-20T18:45:19.654Z,86.5
2022-08-20T18:50:21.524Z,86.8
2022-08-20T18:55:19.614Z,86.4
2022-08-20T19:00:19.662Z,86.1
2022-08-20T19:05:19.679Z,86.6
2022-08-20T19:10:27.740Z,87.2
2022-08-20T19:15:19.608Z,86.8
2022-08-20T19:20:16.686Z,86.4
2022-08-20T19:25:21.644Z,86.4
2022-08-20T19:30:19.706Z,86.7
2022-08-20T19:35:16.650Z,86.6
2022-08-20T19:40:19.963Z,86.9
2022-08-20T19:45:19.633Z,87.3
2022-08-20T19:50:19.644Z,87.3
2022-08-20T19:55:19.643Z,87.7
2022-08-20T20:00:21.433Z,87.4
2022-08-20T20:05:19.647Z,87.4
2022-08-20T20:10:19.663Z,87.6
2022-08-20T20:15:19.708Z,87.9
2022-08-20T20:20:16.727Z,88.1
2022-08-20T20:25:19.692Z,88.3
2022-08-20T20:30:16.506Z,88.3
2022-08-20T20:35:18.545Z,88.4
2022-08-20T20:40:19.764Z,88.5
2022-08-20T20:45:19.752Z,88.9
2022-08-20T20:50:19.649Z,89.2
2022-08-20T20:55:19.731Z,89.5
2022-08-20T21:00:19.653Z,89.4
2022-08-20T21:05:16.686Z,89.5
2022-08-20T21:10:18.510Z,89.7
2022-08-20T21:15:19.737Z,90.1
2022-08-20T21:20:16.727Z,90.2
2022-08-20T21:25:19.710Z,90.0
2022-08-20T21:30:19.713Z,90.0
2022-08-20T21:35:19.645Z,89.7
2022-08-20T21:40:22.070Z,89.4
2022-08-20T21:45:19.830Z,89.3
2022-08-20T21:50:16.764Z,89.1
2022-08-20T21:55:19.710Z,88.8
2022-08-20T22:00:19.789Z,88.4
2022-08-20T22:05:16.691Z,88.1
2022-08-20T22:10:16.737Z,87.8
2022-08-20T22:15:18.579Z,87.5
2022-08-20T22:20:19.748Z,87.2
2022-08-20T22:25:16.713Z,87.0
2022-08-20T22:30:19.727Z,86.7
2022-08-20T22:35:19.721Z,86.5
2022-08-20T22:40:19.789Z,86.2
2022-08-20T22:45:21.619Z,86.0
2022-08-20T22:50:16.728Z,85.8
2022-08-20T22:55:16.831Z,85.6
2022-08-20T23:00:19.754Z,85.4
2022-08-20T23:05:19.709Z,85.1
2022-08-20T23:10:19.714Z,85.0
2022-08-20T23:15:19.810Z,84.7
2022-08-20T23:20:21.498Z,84.5
2022-08-20T23:25:19.747Z,84.4
2022-08-20T23:30:19.815Z,84.2
2022-08-20T23:35:19.778Z,84.1
2022-08-20T23:40:19.808Z,84.0
2022-08-20T23:45:16.762Z,83.8
2022-08-20T23:50:19.845Z,83.7
2022-08-20T23:55:21.636Z,83.6
